sensor_id;sensor_type;location;lat;lon;timestamp;pressure;altitude;pressure_sealevel;temperature;humidity
4972;BME280;2501;51.214;6.768;2023-07-16T00:01:25;100660.63;;;18.86;92.28
4972;BME280;2501;51.214;6.768;2023-07-16T00:03:56;100669.16;;;18.97;91.71
4972;BME280;2501;51.214;6.768;2023-07-16T00:06:24;100667.50;;;18.93;91.53
4972;BME280;2501;51.214;6.768;2023-07-16T00:08:53;100662.13;;;18.94;91.70
4972;BME280;2501;51.214;6.768;2023-07-16T00:11:21;100670.59;;;19.07;90.98
4972;BME280;2501;51.214;6.768;2023-07-16T00:13:50;100667.78;;;19.13;90.61
4972;BME280;2501;51.214;6.768;2023-07-16T00:16:18;100669.44;;;19.17;89.98
4972;BME280;2501;51.214;6.768;2023-07-16T00:18:47;100685.94;;;19.27;88.89
4972;BME280;2501;51.214;6.768;2023-07-16T00:21:18;100688.34;;;19.36;88.48
4972;BME280;2501;51.214;6.768;2023-07-16T00:23:46;100693.88;;;19.58;87.98
4972;BME280;2501;51.214;6.768;2023-07-16T00:26:15;100693.41;;;19.73;86.29
4972;BME280;2501;51.214;6.768;2023-07-16T00:28:43;100697.75;;;19.46;86.08
4972;BME280;2501;51.214;6.768;2023-07-16T00:31:11;100704.31;;;19.36;87.45
4972;BME280;2501;51.214;6.768;2023-07-16T00:33:40;100694.38;;;19.41;88.39
4972;BME280;2501;51.214;6.768;2023-07-16T00:36:08;100697.56;;;18.95;89.77
4972;BME280;2501;51.214;6.768;2023-07-16T00:38:57;100702.13;;;18.90;91.06
4972;BME280;2501;51.214;6.768;2023-07-16T00:41:25;100698.63;;;18.88;92.69
4972;BME280;2501;51.214;6.768;2023-07-16T00:43:54;100703.28;;;19.10;92.73
4972;BME280;2501;51.214;6.768;2023-07-16T00:46:22;100704.56;;;18.97;92.31
4972;BME280;2501;51.214;6.768;2023-07-16T00:48:52;100703.69;;;18.67;94.11
4972;BME280;2501;51.214;6.768;2023-07-16T00:51:21;100713.25;;;18.39;96.08
4972;BME280;2501;51.214;6.768;2023-07-16T00:53:52;100698.00;;;18.47;98.03
4972;BME280;2501;51.214;6.768;2023-07-16T00:56:24;100704.66;;;18.31;97.85
4972;BME280;2501;51.214;6.768;2023-07-16T00:58:53;100696.19;;;18.17;99.38
4972;BME280;2501;51.214;6.768;2023-07-16T01:01:21;100698.78;;;18.18;100.00
4972;BME280;2501;51.214;6.768;2023-07-16T01:03:50;100702.47;;;18.13;100.00
4972;BME280;2501;51.214;6.768;2023-07-16T01:06:23;100700.81;;;18.08;100.00
4972;BME280;2501;51.214;6.768;2023-07-16T01:08:59;100699.94;;;18.08;99.96
4972;BME280;2501;51.214;6.768;2023-07-16T01:11:33;100697.09;;;18.16;98.77
4972;BME280;2501;51.214;6.768;2023-07-16T01:14:03;100704.72;;;18.28;98.29
4972;BME280;2501;51.214;6.768;2023-07-16T01:16:33;100697.56;;;18.31;97.48
4972;BME280;2501;51.214;6.768;2023-07-16T01:19:02;100709.72;;;18.38;97.46
4972;BME280;2501;51.214;6.768;2023-07-16T01:21:34;100703.41;;;18.44;96.88
4972;BME280;2501;51.214;6.768;2023-07-16T01:24:33;100707.03;;;18.40;96.74
4972;BME280;2501;51.214;6.768;2023-07-16T01:27:30;100697.38;;;18.37;96.88
4972;BME280;2501;51.214;6.768;2023-07-16T01:30:07;100700.28;;;18.28;96.99
4972;BME280;2501;51.214;6.768;2023-07-16T01:32:37;100696.06;;;18.20;96.94
4972;BME280;2501;51.214;6.768;2023-07-16T01:35:07;100703.38;;;18.12;97.01
4972;BME280;2501;51.214;6.768;2023-07-16T01:37:36;100705.81;;;18.19;97.43
4972;BME280;2501;51.214;6.768;2023-07-16T01:40:07;100702.25;;;18.20;97.16
4972;BME280;2501;51.214;6.768;2023-07-16T01:42:37;100706.03;;;18.12;97.52
4972;BME280;2501;51.214;6.768;2023-07-16T01:45:08;100708.88;;;18.04;96.98
4972;BME280;2501;51.214;6.768;2023-07-16T01:47:43;100719.31;;;18.12;97.54
4972;BME280;2501;51.214;6.768;2023-07-16T01:50:13;100720.25;;;18.09;97.10
4972;BME280;2501;51.214;6.768;2023-07-16T01:52:41;100725.75;;;18.01;97.05
4972;BME280;2501;51.214;6.768;2023-07-16T01:55:13;100735.63;;;17.96;97.44
4972;BME280;2501;51.214;6.768;2023-07-16T01:57:42;100732.03;;;17.99;97.14
4972;BME280;2501;51.214;6.768;2023-07-16T02:00:13;100730.38;;;17.93;97.62
4972;BME280;2501;51.214;6.768;2023-07-16T02:02:41;100725.81;;;18.00;97.50
4972;BME280;2501;51.214;6.768;2023-07-16T02:05:10;100735.72;;;17.92;97.42
4972;BME280;2501;51.214;6.768;2023-07-16T02:07:38;100735.72;;;17.92;96.99
4972;BME280;2501;51.214;6.768;2023-07-16T02:10:07;100734.19;;;17.83;97.17
4972;BME280;2501;51.214;6.768;2023-07-16T02:12:36;100743.16;;;17.78;97.88
4972;BME280;2501;51.214;6.768;2023-07-16T02:15:06;100740.44;;;17.81;97.78
4972;BME280;2501;51.214;6.768;2023-07-16T02:17:37;100748.41;;;17.79;97.61
4972;BME280;2501;51.214;6.768;2023-07-16T02:20:06;100740.44;;;17.81;97.67
4972;BME280;2501;51.214;6.768;2023-07-16T02:22:36;100750.25;;;17.77;97.79
4972;BME280;2501;51.214;6.768;2023-07-16T02:25:05;100756.50;;;17.73;97.51
4972;BME280;2501;51.214;6.768;2023-07-16T02:27:33;100758.19;;;17.77;97.55
4972;BME280;2501;51.214;6.768;2023-07-16T02:30:02;100763.63;;;17.71;97.55
4972;BME280;2501;51.214;6.768;2023-07-16T02:32:31;100769.00;;;17.68;97.36
4972;BME280;2501;51.214;6.768;2023-07-16T02:35:02;100766.44;;;17.65;97.57
4972;BME280;2501;51.214;6.768;2023-07-16T02:37:31;100769.22;;;17.57;97.80
4972;BME280;2501;51.214;6.768;2023-07-16T02:39:59;100767.50;;;17.55;97.87
4972;BME280;2501;51.214;6.768;2023-07-16T02:42:28;100778.09;;;17.56;98.15
4972;BME280;2501;51.214;6.768;2023-07-16T02:44:57;100775.66;;;17.47;98.06
4972;BME280;2501;51.214;6.768;2023-07-16T02:47:25;100778.41;;;17.43;97.59
4972;BME280;2501;51.214;6.768;2023-07-16T02:49:53;100787.19;;;17.45;97.20
4972;BME280;2501;51.214;6.768;2023-07-16T02:52:24;100792.50;;;17.45;96.29
4972;BME280;2501;51.214;6.768;2023-07-16T02:54:53;100787.31;;;17.38;95.19
4972;BME280;2501;51.214;6.768;2023-07-16T02:57:21;100791.78;;;17.36;94.06
4972;BME280;2501;51.214;6.768;2023-07-16T02:59:50;100800.50;;;17.42;93.02
4972;BME280;2501;51.214;6.768;2023-07-16T03:02:18;100804.03;;;17.42;91.93
4972;BME280;2501;51.214;6.768;2023-07-16T03:04:47;100797.00;;;17.41;91.30
4972;BME280;2501;51.214;6.768;2023-07-16T03:07:15;100792.63;;;17.38;90.78
4972;BME280;2501;51.214;6.768;2023-07-16T03:09:46;100802.25;;;17.43;89.11
4972;BME280;2501;51.214;6.768;2023-07-16T03:12:14;100808.00;;;17.63;87.81
4972;BME280;2501;51.214;6.768;2023-07-16T03:14:43;100808.34;;;17.48;86.34
4972;BME280;2501;51.214;6.768;2023-07-16T03:17:11;100810.63;;;17.66;85.25
4972;BME280;2501;51.214;6.768;2023-07-16T03:19:40;100808.00;;;17.63;83.87
4972;BME280;2501;51.214;6.768;2023-07-16T03:22:08;100808.72;;;17.71;83.51
4972;BME280;2501;51.214;6.768;2023-07-16T03:24:36;100820.44;;;17.59;83.09
4972;BME280;2501;51.214;6.768;2023-07-16T03:27:07;100822.03;;;17.69;82.08
4972;BME280;2501;51.214;6.768;2023-07-16T03:29:36;100818.53;;;17.67;81.15
4972;BME280;2501;51.214;6.768;2023-07-16T03:32:05;100823.19;;;17.55;81.70
4972;BME280;2501;51.214;6.768;2023-07-16T03:34:34;100835.66;;;17.51;81.67
4972;BME280;2501;51.214;6.768;2023-07-16T03:37:02;100834.69;;;17.55;81.63
4972;BME280;2501;51.214;6.768;2023-07-16T03:39:31;100839.28;;;17.47;80.97
4972;BME280;2501;51.214;6.768;2023-07-16T03:41:59;100844.66;;;17.44;81.43
4972;BME280;2501;51.214;6.768;2023-07-16T03:44:30;100848.34;;;17.35;81.83
4972;BME280;2501;51.214;6.768;2023-07-16T03:46:59;100853.63;;;17.37;81.64
4972;BME280;2501;51.214;6.768;2023-07-16T03:49:27;100846.69;;;17.31;82.14
4972;BME280;2501;51.214;6.768;2023-07-16T03:51:55;100856.44;;;17.29;82.31
4972;BME280;2501;51.214;6.768;2023-07-16T03:54:24;100861.81;;;17.26;82.11
4972;BME280;2501;51.214;6.768;2023-07-16T03:56:52;100856.47;;;17.28;82.15
4972;BME280;2501;51.214;6.768;2023-07-16T03:59:20;100859.16;;;17.26;81.69
4972;BME280;2501;51.214;6.768;2023-07-16T04:01:51;100865.19;;;17.33;80.94
4972;BME280;2501;51.214;6.768;2023-07-16T04:04:20;100864.41;;;17.29;80.87
4972;BME280;2501;51.214;6.768;2023-07-16T04:06:48;100872.41;;;17.26;80.55
4972;BME280;2501;51.214;6.768;2023-07-16T04:09:17;100876.03;;;17.21;80.43
4972;BME280;2501;51.214;6.768;2023-07-16T04:11:42;100880.38;;;17.25;80.88
4972;BME280;2501;51.214;6.768;2023-07-16T04:14:11;100888.47;;;17.17;80.77
4972;BME280;2501;51.214;6.768;2023-07-16T04:16:39;100879.66;;;17.15;80.66
4972;BME280;2501;51.214;6.768;2023-07-16T04:19:10;100885.81;;;17.17;80.84
4972;BME280;2501;51.214;6.768;2023-07-16T04:21:39;100885.63;;;17.28;80.90
4972;BME280;2501;51.214;6.768;2023-07-16T04:24:07;100885.66;;;17.26;79.34
4972;BME280;2501;51.214;6.768;2023-07-16T04:26:35;100890.16;;;17.21;79.09
4972;BME280;2501;51.214;6.768;2023-07-16T04:29:04;100893.72;;;17.20;78.89
4972;BME280;2501;51.214;6.768;2023-07-16T04:31:32;100891.94;;;17.21;79.13
4972;BME280;2501;51.214;6.768;2023-07-16T04:34:01;100897.25;;;17.21;78.96
4972;BME280;2501;51.214;6.768;2023-07-16T04:36:32;100893.66;;;17.23;78.42
4972;BME280;2501;51.214;6.768;2023-07-16T04:39:00;100890.09;;;17.26;78.60
4972;BME280;2501;51.214;6.768;2023-07-16T04:41:30;100897.19;;;17.24;78.24
4972;BME280;2501;51.214;6.768;2023-07-16T04:43:58;100899.88;;;17.22;78.35
4972;BME280;2501;51.214;6.768;2023-07-16T04:46:26;100900.56;;;17.32;78.33
4972;BME280;2501;51.214;6.768;2023-07-16T04:48:55;100913.03;;;17.28;78.30
4972;BME280;2501;51.214;6.768;2023-07-16T04:51:24;100906.63;;;17.38;78.49
4972;BME280;2501;51.214;6.768;2023-07-16T04:53:55;100914.63;;;17.35;77.99
4972;BME280;2501;51.214;6.768;2023-07-16T04:56:23;100916.25;;;17.44;78.27
4972;BME280;2501;51.214;6.768;2023-07-16T04:58:52;100916.44;;;17.33;78.03
4972;BME280;2501;51.214;6.768;2023-07-16T05:01:20;100930.44;;;17.40;77.65
4972;BME280;2501;51.214;6.768;2023-07-16T05:03:49;100928.66;;;17.42;77.50
4972;BME280;2501;51.214;6.768;2023-07-16T05:06:17;100920.66;;;17.44;77.92
4972;BME280;2501;51.214;6.768;2023-07-16T05:08:45;100936.44;;;17.50;77.36
4972;BME280;2501;51.214;6.768;2023-07-16T05:11:16;100929.22;;;17.58;77.08
4972;BME280;2501;51.214;6.768;2023-07-16T05:13:45;100938.84;;;17.65;76.32
4972;BME280;2501;51.214;6.768;2023-07-16T05:16:13;100935.50;;;17.52;76.59
4972;BME280;2501;51.214;6.768;2023-07-16T05:18:41;100938.09;;;17.55;76.43
4972;BME280;2501;51.214;6.768;2023-07-16T05:21:10;100944.22;;;17.59;76.34
4972;BME280;2501;51.214;6.768;2023-07-16T05:23:38;100947.53;;;17.71;76.20
4972;BME280;2501;51.214;6.768;2023-07-16T05:26:07;100945.75;;;17.72;75.81
4972;BME280;2501;51.214;6.768;2023-07-16T05:28:37;100951.94;;;17.72;76.06
4972;BME280;2501;51.214;6.768;2023-07-16T05:31:06;100959.88;;;17.74;75.76
4972;BME280;2501;51.214;6.768;2023-07-16T05:33:34;100951.78;;;17.80;75.26
4972;BME280;2501;51.214;6.768;2023-07-16T05:36:03;100962.22;;;17.89;73.76
4972;BME280;2501;51.214;6.768;2023-07-16T05:38:32;100957.94;;;17.82;73.74
4972;BME280;2501;51.214;6.768;2023-07-16T05:41:01;100957.81;;;17.88;73.39
4972;BME280;2501;51.214;6.768;2023-07-16T05:43:30;100961.78;;;18.09;73.34
4972;BME280;2501;51.214;6.768;2023-07-16T05:46:01;100961.94;;;18.01;72.62
4972;BME280;2501;51.214;6.768;2023-07-16T05:48:30;100972.28;;;18.15;72.21
4972;BME280;2501;51.214;6.768;2023-07-16T05:50:59;100967.06;;;18.11;70.39
4972;BME280;2501;51.214;6.768;2023-07-16T05:53:27;100981.00;;;18.20;70.61
4972;BME280;2501;51.214;6.768;2023-07-16T05:55:55;100980.63;;;18.37;69.56
4972;BME280;2501;51.214;6.768;2023-07-16T05:58:24;100977.38;;;18.24;69.03
4972;BME280;2501;51.214;6.768;2023-07-16T06:00:53;100980.78;;;18.31;67.68
4972;BME280;2501;51.214;6.768;2023-07-16T06:03:24;100988.97;;;18.20;67.37
4972;BME280;2501;51.214;6.768;2023-07-16T06:05:52;100980.53;;;18.41;67.43
4972;BME280;2501;51.214;6.768;2023-07-16T06:08:20;100973.50;;;18.39;67.44
4972;BME280;2501;51.214;6.768;2023-07-16T06:10:50;100988.22;;;18.54;67.90
4972;BME280;2501;51.214;6.768;2023-07-16T06:13:18;100974.53;;;18.72;66.15
4972;BME280;2501;51.214;6.768;2023-07-16T06:15:47;100983.63;;;18.62;65.83
4972;BME280;2501;51.214;6.768;2023-07-16T06:18:16;100973.06;;;18.57;65.44
4972;BME280;2501;51.214;6.768;2023-07-16T06:20:47;100981.97;;;18.56;64.55
4972;BME280;2501;51.214;6.768;2023-07-16T06:23:17;100979.22;;;18.61;64.31
4972;BME280;2501;51.214;6.768;2023-07-16T06:25:45;100986.13;;;18.69;64.28
4972;BME280;2501;51.214;6.768;2023-07-16T06:28:15;100977.38;;;18.64;64.45
4972;BME280;2501;51.214;6.768;2023-07-16T06:30:43;100987.84;;;18.70;63.88
4972;BME280;2501;51.214;6.768;2023-07-16T06:33:12;100989.66;;;18.70;63.25
4972;BME280;2501;51.214;6.768;2023-07-16T06:35:43;100988.63;;;18.75;63.02
4972;BME280;2501;51.214;6.768;2023-07-16T06:38:15;100995.00;;;18.68;62.72
4972;BME280;2501;51.214;6.768;2023-07-16T06:40:47;101001.78;;;18.82;62.45
4972;BME280;2501;51.214;6.768;2023-07-16T06:43:16;100998.16;;;18.84;62.22
4972;BME280;2501;51.214;6.768;2023-07-16T06:45:45;100997.25;;;18.85;61.38
4972;BME280;2501;51.214;6.768;2023-07-16T06:48:13;101005.03;;;18.93;61.46
4972;BME280;2501;51.214;6.768;2023-07-16T06:50:41;101004.00;;;18.98;61.71
4972;BME280;2501;51.214;6.768;2023-07-16T06:53:10;101003.91;;;19.03;60.31
4972;BME280;2501;51.214;6.768;2023-07-16T06:55:41;101004.56;;;19.11;59.88
4972;BME280;2501;51.214;6.768;2023-07-16T06:58:10;100997.47;;;19.11;60.34
4972;BME280;2501;51.214;6.768;2023-07-16T07:00:39;100987.34;;;19.26;60.41
4972;BME280;2501;51.214;6.768;2023-07-16T07:03:07;100995.16;;;19.33;60.56
4972;BME280;2501;51.214;6.768;2023-07-16T07:05:36;100998.63;;;19.35;59.08
4972;BME280;2501;51.214;6.768;2023-07-16T07:08:04;100993.50;;;19.62;58.48
4972;BME280;2501;51.214;6.768;2023-07-16T07:10:33;100986.31;;;19.31;58.64
4972;BME280;2501;51.214;6.768;2023-07-16T07:13:06;101012.03;;;19.31;59.79
4972;BME280;2501;51.214;6.768;2023-07-16T07:15:34;100999.13;;;19.51;59.02
4972;BME280;2501;51.214;6.768;2023-07-16T07:18:03;101001.00;;;19.12;59.53
4972;BME280;2501;51.214;6.768;2023-07-16T07:20:31;101021.63;;;19.38;58.54
4972;BME280;2501;51.214;6.768;2023-07-16T07:23:00;101003.91;;;19.71;57.84
4972;BME280;2501;51.214;6.768;2023-07-16T07:25:30;100998.16;;;19.55;57.36
4972;BME280;2501;51.214;6.768;2023-07-16T07:27:59;101006.84;;;19.26;57.35
4972;BME280;2501;51.214;6.768;2023-07-16T07:30:30;101005.75;;;19.69;58.02
4972;BME280;2501;51.214;6.768;2023-07-16T07:32:59;101004.56;;;19.79;56.86
4972;BME280;2501;51.214;6.768;2023-07-16T07:35:28;101000.44;;;19.35;57.12
4972;BME280;2501;51.214;6.768;2023-07-16T07:37:57;101001.03;;;19.44;57.26
4972;BME280;2501;51.214;6.768;2023-07-16T07:40:25;101004.47;;;19.51;56.94
4972;BME280;2501;51.214;6.768;2023-07-16T07:42:54;100999.47;;;19.71;56.36
4972;BME280;2501;51.214;6.768;2023-07-16T07:45:23;101006.16;;;19.54;56.20
4972;BME280;2501;51.214;6.768;2023-07-16T07:47:54;101012.81;;;19.70;55.87
4972;BME280;2501;51.214;6.768;2023-07-16T07:50:22;101008.72;;;19.89;55.35
4972;BME280;2501;51.214;6.768;2023-07-16T07:52:51;101011.66;;;20.09;54.61
4972;BME280;2501;51.214;6.768;2023-07-16T07:55:19;101003.25;;;19.94;55.72
4972;BME280;2501;51.214;6.768;2023-07-16T07:57:48;101015.06;;;20.14;54.64
4972;BME280;2501;51.214;6.768;2023-07-16T08:00:16;101013.19;;;20.18;54.01
4972;BME280;2501;51.214;6.768;2023-07-16T08:02:45;101013.75;;;20.29;53.11
4972;BME280;2501;51.214;6.768;2023-07-16T08:05:16;101009.88;;;20.10;54.43
4972;BME280;2501;51.214;6.768;2023-07-16T08:07:44;101015.31;;;20.38;53.74
4972;BME280;2501;51.214;6.768;2023-07-16T08:10:13;101020.06;;;20.56;53.04
4972;BME280;2501;51.214;6.768;2023-07-16T08:12:41;101028.38;;;20.45;53.12
4972;BME280;2501;51.214;6.768;2023-07-16T08:15:10;101022.09;;;20.48;52.53
4972;BME280;2501;51.214;6.768;2023-07-16T08:17:40;101025.72;;;20.45;52.85
4972;BME280;2501;51.214;6.768;2023-07-16T08:20:10;101023.66;;;20.83;52.52
4972;BME280;2501;51.214;6.768;2023-07-16T08:22:41;101031.75;;;21.34;51.44
4972;BME280;2501;51.214;6.768;2023-07-16T08:25:10;101028.06;;;20.84;51.50
4972;BME280;2501;51.214;6.768;2023-07-16T08:27:38;101027.59;;;20.98;52.07
4972;BME280;2501;51.214;6.768;2023-07-16T08:30:08;101033.84;;;20.97;52.28
4972;BME280;2501;51.214;6.768;2023-07-16T08:32:36;101025.47;;;20.81;51.25
4972;BME280;2501;51.214;6.768;2023-07-16T08:35:06;101027.94;;;21.15;50.14
4972;BME280;2501;51.214;6.768;2023-07-16T08:37:37;101030.88;;;21.34;48.94
4972;BME280;2501;51.214;6.768;2023-07-16T08:40:10;101033.75;;;21.00;49.60
4972;BME280;2501;51.214;6.768;2023-07-16T08:42:39;101034.75;;;20.69;50.62
4972;BME280;2501;51.214;6.768;2023-07-16T08:45:10;101034.56;;;20.75;51.12
4972;BME280;2501;51.214;6.768;2023-07-16T08:47:39;101033.91;;;21.23;50.08
4972;BME280;2501;51.214;6.768;2023-07-16T08:50:09;101036.06;;;21.38;48.75
4972;BME280;2501;51.214;6.768;2023-07-16T08:52:38;101036.97;;;21.11;48.82
4972;BME280;2501;51.214;6.768;2023-07-16T08:55:10;101042.00;;;20.94;49.45
4972;BME280;2501;51.214;6.768;2023-07-16T08:57:39;101040.56;;;21.10;49.38
4972;BME280;2501;51.214;6.768;2023-07-16T09:00:09;101040.91;;;21.27;48.46
4972;BME280;2501;51.214;6.768;2023-07-16T09:02:38;101048.66;;;21.07;48.56
4972;BME280;2501;51.214;6.768;2023-07-16T09:05:09;101049.00;;;20.68;50.03
4972;BME280;2501;51.214;6.768;2023-07-16T09:07:37;101051.78;;;20.93;49.64
4972;BME280;2501;51.214;6.768;2023-07-16T09:10:07;101057.78;;;20.72;50.02
4972;BME280;2501;51.214;6.768;2023-07-16T09:12:41;101048.75;;;21.04;49.21
4972;BME280;2501;51.214;6.768;2023-07-16T09:15:10;101044.50;;;21.51;48.98
4972;BME280;2501;51.214;6.768;2023-07-16T09:17:39;101043.25;;;21.36;48.04
4972;BME280;2501;51.214;6.768;2023-07-16T09:20:09;101053.78;;;21.13;49.31
4972;BME280;2501;51.214;6.768;2023-07-16T09:22:37;101050.19;;;21.42;48.52
4972;BME280;2501;51.214;6.768;2023-07-16T09:25:06;101054.78;;;21.10;48.63
4972;BME280;2501;51.214;6.768;2023-07-16T09:27:38;101055.06;;;21.29;48.77
4972;BME280;2501;51.214;6.768;2023-07-16T09:30:14;101055.47;;;21.68;47.46
4972;BME280;2501;51.214;6.768;2023-07-16T09:32:42;101052.16;;;21.62;47.88
4972;BME280;2501;51.214;6.768;2023-07-16T09:35:11;101054.13;;;21.30;48.76
4972;BME280;2501;51.214;6.768;2023-07-16T09:37:41;101048.88;;;20.99;49.90
4972;BME280;2501;51.214;6.768;2023-07-16T09:40:11;101043.53;;;21.29;49.25
4972;BME280;2501;51.214;6.768;2023-07-16T09:42:43;101037.28;;;21.54;48.48
4972;BME280;2501;51.214;6.768;2023-07-16T09:45:17;101054.44;;;21.72;47.59
4972;BME280;2501;51.214;6.768;2023-07-16T09:47:46;101057.81;;;21.52;47.97
4972;BME280;2501;51.214;6.768;2023-07-16T09:50:15;101053.00;;;21.37;48.27
4972;BME280;2501;51.214;6.768;2023-07-16T09:52:44;101051.72;;;21.74;48.54
4972;BME280;2501;51.214;6.768;2023-07-16T09:55:15;101052.41;;;21.80;47.62
4972;BME280;2501;51.214;6.768;2023-07-16T09:57:47;101050.19;;;21.42;48.13
4972;BME280;2501;51.214;6.768;2023-07-16T10:00:17;101049.72;;;22.05;47.53
4972;BME280;2501;51.214;6.768;2023-07-16T10:02:46;101041.44;;;22.13;47.03
4972;BME280;2501;51.214;6.768;2023-07-16T10:05:15;101057.91;;;22.71;46.38
4972;BME280;2501;51.214;6.768;2023-07-16T10:07:50;101054.13;;;22.53;45.64
4972;BME280;2501;51.214;6.768;2023-07-16T10:10:20;101051.56;;;22.73;46.27
4972;BME280;2501;51.214;6.768;2023-07-16T10:13:01;101060.41;;;22.99;44.93
4972;BME280;2501;51.214;6.768;2023-07-16T10:15:30;101058.38;;;22.58;45.60
4972;BME280;2501;51.214;6.768;2023-07-16T10:17:58;101064.94;;;23.18;44.85
4972;BME280;2501;51.214;6.768;2023-07-16T10:20:31;101057.63;;;22.55;45.50
4972;BME280;2501;51.214;6.768;2023-07-16T10:23:10;101045.78;;;22.39;46.23
4972;BME280;2501;51.214;6.768;2023-07-16T10:25:40;101052.44;;;22.74;45.64
4972;BME280;2501;51.214;6.768;2023-07-16T10:28:11;101066.72;;;22.73;45.94
4972;BME280;2501;51.214;6.768;2023-07-16T10:30:39;101068.31;;;23.02;44.36
4972;BME280;2501;51.214;6.768;2023-07-16T10:33:11;101074.81;;;23.16;44.02
4972;BME280;2501;51.214;6.768;2023-07-16T10:35:41;101063.72;;;23.25;43.55
4972;BME280;2501;51.214;6.768;2023-07-16T10:38:10;101071.94;;;22.77;44.37
4972;BME280;2501;51.214;6.768;2023-07-16T10:40:39;101071.69;;;22.60;45.02
4972;BME280;2501;51.214;6.768;2023-07-16T10:43:11;101071.91;;;22.54;45.52
4972;BME280;2501;51.214;6.768;2023-07-16T10:45:40;101064.06;;;23.18;44.03
4972;BME280;2501;51.214;6.768;2023-07-16T10:48:10;101070.28;;;22.97;44.00
4972;BME280;2501;51.214;6.768;2023-07-16T10:50:40;101072.63;;;23.26;43.48
4972;BME280;2501;51.214;6.768;2023-07-16T10:53:09;101058.34;;;24.28;41.88
4972;BME280;2501;51.214;6.768;2023-07-16T10:55:41;101066.69;;;24.02;42.03
4972;BME280;2501;51.214;6.768;2023-07-16T10:58:12;101064.34;;;23.74;42.42
4972;BME280;2501;51.214;6.768;2023-07-16T11:00:40;101058.97;;;23.74;41.91
4972;BME280;2501;51.214;6.768;2023-07-16T11:03:09;101062.59;;;23.93;41.51
4972;BME280;2501;51.214;6.768;2023-07-16T11:05:38;101073.59;;;23.45;42.70
4972;BME280;2501;51.214;6.768;2023-07-16T11:08:06;101068.69;;;23.97;41.99
4972;BME280;2501;51.214;6.768;2023-07-16T11:10:34;101068.75;;;23.95;41.81
4972;BME280;2501;51.214;6.768;2023-07-16T11:13:03;101072.13;;;24.01;41.14
4972;BME280;2501;51.214;6.768;2023-07-16T11:15:34;101069.63;;;23.76;40.97
4972;BME280;2501;51.214;6.768;2023-07-16T11:18:03;101080.16;;;24.01;40.83
4972;BME280;2501;51.214;6.768;2023-07-16T11:20:32;101057.19;;;23.75;41.03
4972;BME280;2501;51.214;6.768;2023-07-16T11:23:03;101072.00;;;23.83;41.60
4972;BME280;2501;51.214;6.768;2023-07-16T11:25:32;101078.75;;;24.51;40.18
4972;BME280;2501;51.214;6.768;2023-07-16T11:28:01;101077.22;;;24.83;40.55
4972;BME280;2501;51.214;6.768;2023-07-16T11:30:30;101077.94;;;24.49;39.60
4972;BME280;2501;51.214;6.768;2023-07-16T11:33:09;101077.28;;;24.05;40.47
4972;BME280;2501;51.214;6.768;2023-07-16T11:35:38;101085.47;;;24.60;40.13
4972;BME280;2501;51.214;6.768;2023-07-16T11:38:07;101074.81;;;24.77;39.76
4972;BME280;2501;51.214;6.768;2023-07-16T11:40:35;101087.16;;;24.62;39.84
4972;BME280;2501;51.214;6.768;2023-07-16T11:43:08;101082.81;;;24.41;40.64
4972;BME280;2501;51.214;6.768;2023-07-16T11:45:38;101083.41;;;24.27;41.29
4972;BME280;2501;51.214;6.768;2023-07-16T11:48:09;101087.13;;;23.84;41.54
4972;BME280;2501;51.214;6.768;2023-07-16T11:50:37;101096.84;;;23.87;42.27
4972;BME280;2501;51.214;6.768;2023-07-16T11:53:06;101092.00;;;24.36;40.98
4972;BME280;2501;51.214;6.768;2023-07-16T11:55:35;101089.00;;;24.42;40.31
4972;BME280;2501;51.214;6.768;2023-07-16T11:58:03;101096.34;;;24.38;40.26
4972;BME280;2501;51.214;6.768;2023-07-16T12:00:32;101099.44;;;24.29;40.47
4972;BME280;2501;51.214;6.768;2023-07-16T12:03:00;101093.16;;;24.49;40.76
4972;BME280;2501;51.214;6.768;2023-07-16T12:05:31;101092.31;;;24.28;41.55
4972;BME280;2501;51.214;6.768;2023-07-16T12:08:00;101093.38;;;24.63;40.37
4972;BME280;2501;51.214;6.768;2023-07-16T12:10:28;101089.69;;;24.66;40.34
4972;BME280;2501;51.214;6.768;2023-07-16T12:12:57;101081.28;;;24.36;40.80
4972;BME280;2501;51.214;6.768;2023-07-16T12:15:25;101091.56;;;24.45;40.71
4972;BME280;2501;51.214;6.768;2023-07-16T12:17:54;101090.22;;;24.74;39.60
4972;BME280;2501;51.214;6.768;2023-07-16T12:20:22;101089.47;;;24.70;39.99
4972;BME280;2501;51.214;6.768;2023-07-16T12:22:53;101084.78;;;24.75;39.00
4972;BME280;2501;51.214;6.768;2023-07-16T12:25:22;101088.53;;;24.90;38.89
4972;BME280;2501;51.214;6.768;2023-07-16T12:27:50;101082.16;;;25.28;38.75
4972;BME280;2501;51.214;6.768;2023-07-16T12:30:19;101088.72;;;25.23;38.51
4972;BME280;2501;51.214;6.768;2023-07-16T12:32:47;101083.34;;;25.93;37.49
4972;BME280;2501;51.214;6.768;2023-07-16T12:35:16;101087.88;;;24.85;39.39
4972;BME280;2501;51.214;6.768;2023-07-16T12:37:44;101090.38;;;25.61;38.20
4972;BME280;2501;51.214;6.768;2023-07-16T12:40:15;101086.63;;;26.16;36.84
4972;BME280;2501;51.214;6.768;2023-07-16T12:42:45;101088.63;;;25.60;37.68
4972;BME280;2501;51.214;6.768;2023-07-16T12:45:13;101103.06;;;25.05;38.64
4972;BME280;2501;51.214;6.768;2023-07-16T12:47:42;101095.72;;;24.52;39.09
4972;BME280;2501;51.214;6.768;2023-07-16T12:50:10;101098.09;;;25.14;38.18
4972;BME280;2501;51.214;6.768;2023-07-16T12:52:39;101093.69;;;25.30;38.17
4972;BME280;2501;51.214;6.768;2023-07-16T12:55:07;101096.72;;;25.24;37.68
4972;BME280;2501;51.214;6.768;2023-07-16T12:57:38;101094.00;;;25.07;38.50
4972;BME280;2501;51.214;6.768;2023-07-16T13:00:08;101091.09;;;25.29;38.03
4972;BME280;2501;51.214;6.768;2023-07-16T13:02:38;101106.25;;;25.66;38.02
4972;BME280;2501;51.214;6.768;2023-07-16T13:05:07;101095.41;;;25.14;38.43
4972;BME280;2501;51.214;6.768;2023-07-16T13:07:35;101093.38;;;26.07;36.55
4972;BME280;2501;51.214;6.768;2023-07-16T13:10:05;101103.31;;;25.53;37.60
4972;BME280;2501;51.214;6.768;2023-07-16T13:12:33;101090.78;;;25.88;36.87
4972;BME280;2501;51.214;6.768;2023-07-16T13:15:05;101094.91;;;25.25;38.09
4972;BME280;2501;51.214;6.768;2023-07-16T13:17:35;101104.22;;;24.99;38.11
4972;BME280;2501;51.214;6.768;2023-07-16T13:20:05;101098.59;;;25.22;38.12
4972;BME280;2501;51.214;6.768;2023-07-16T13:22:35;101101.25;;;25.58;37.79